createdAt,value
2019-02-25T00:00:15.182Z,14.10
2019-02-25T00:01:15.172Z,13.30
2019-02-25T00:02:15.165Z,13.60
2019-02-25T00:03:15.155Z,14.10
2019-02-25T00:04:15.180Z,13.40
2019-02-25T00:05:15.141Z,13.90
2019-02-25T00:06:15.117Z,13.40
2019-02-25T00:07:15.112Z,13.60
2019-02-25T00:08:15.119Z,13.70
2019-02-25T00:09:15.106Z,14.50
2019-02-25T00:10:15.167Z,13.40
2019-02-25T00:11:15.074Z,14.20
2019-02-25T00:12:15.064Z,13.90
2019-02-25T00:13:15.061Z,14.10
2019-02-25T00:14:15.076Z,13.90
2019-02-25T00:15:15.025Z,13.40
2019-02-25T00:16:15.021Z,14.00
2019-02-25T00:17:15.013Z,13.80
2019-02-25T00:18:14.994Z,13.20
2019-02-25T00:19:15.006Z,13.80
2019-02-25T00:20:14.999Z,13.20
2019-02-25T00:21:14.964Z,13.50
2019-02-25T00:22:14.958Z,13.70
2019-02-25T00:23:14.947Z,13.20
2019-02-25T00:24:14.945Z,13.00
2019-02-25T00:25:14.947Z,13.70
2019-02-25T00:26:14.979Z,13.40
2019-02-25T00:27:14.904Z,13.60
2019-02-25T00:28:14.890Z,13.40
2019-02-25T00:29:14.924Z,12.70
2019-02-25T00:30:14.887Z,13.30
2019-02-25T00:31:14.887Z,13.10
2019-02-25T00:32:14.897Z,13.70
2019-02-25T00:33:14.846Z,13.30
2019-02-25T00:34:14.856Z,13.30
2019-02-25T00:35:14.828Z,13.40
2019-02-25T00:36:14.822Z,13.40
2019-02-25T00:37:14.802Z,13.80
2019-02-25T00:38:14.808Z,12.80
2019-02-25T00:39:14.778Z,13.00
2019-02-25T00:40:14.759Z,13.10
2019-02-25T00:41:14.777Z,13.40
2019-02-25T00:42:14.766Z,13.00
2019-02-25T00:43:14.764Z,13.30
2019-02-25T00:44:14.726Z,12.70
2019-02-25T00:45:14.721Z,13.10
2019-02-25T00:46:14.700Z,12.40
2019-02-25T00:47:14.696Z,13.00
2019-02-25T00:48:14.730Z,12.80
2019-02-25T00:49:14.709Z,12.90
2019-02-25T00:50:14.660Z,13.00
2019-02-25T00:51:14.647Z,12.50
2019-02-25T00:52:14.652Z,12.70
2019-02-25T00:53:14.630Z,13.20
2019-02-25T00:54:14.655Z,12.90
2019-02-25T00:55:14.616Z,12.40
2019-02-25T00:56:14.603Z,12.30
2019-02-25T00:57:14.592Z,12.90
2019-02-25T00:58:14.573Z,12.80
2019-02-25T00:59:14.566Z,12.30
2019-02-25T01:00:14.582Z,13.30
2019-02-25T01:01:14.543Z,13.40
2019-02-25T01:02:14.545Z,12.80
2019-02-25T01:03:14.536Z,12.70
2019-02-25T01:04:14.513Z,13.10
2019-02-25T01:05:14.528Z,12.40
2019-02-25T01:06:14.505Z,13.10
2019-02-25T01:07:14.486Z,13.50
2019-02-25T01:08:14.476Z,12.60
2019-02-25T01:09:14.473Z,13.30
2019-02-25T01:10:14.479Z,12.50
2019-02-25T01:11:14.452Z,12.50
2019-02-25T01:12:14.429Z,13.00
2019-02-25T01:13:14.422Z,13.00
2019-02-25T01:14:14.415Z,12.70
2019-02-25T01:15:14.443Z,13.10
2019-02-25T01:16:14.390Z,12.80
2019-02-25T01:17:14.382Z,12.60
2019-02-25T01:18:14.365Z,12.60
2019-02-25T01:19:14.359Z,12.50
2019-02-25T01:20:14.350Z,12.50
2019-02-25T01:21:14.356Z,12.20
2019-02-25T01:22:14.323Z,12.10
2019-02-25T01:23:14.318Z,12.30
2019-02-25T01:24:14.303Z,12.60
2019-02-25T01:25:14.295Z,12.60
2019-02-25T01:26:14.315Z,11.90
2019-02-25T01:27:14.285Z,12.50
2019-02-25T01:28:14.269Z,12.50
2019-02-25T01:29:14.265Z,13.60
2019-02-25T01:30:14.240Z,12.60
2019-02-25T01:31:14.257Z,13.30
2019-02-25T01:32:14.222Z,12.30
2019-02-25T01:33:14.229Z,12.50
2019-02-25T01:34:14.201Z,12.70
2019-02-25T01:35:14.191Z,12.70
2019-02-25T01:36:14.177Z,12.70
2019-02-25T01:37:14.189Z,12.80
2019-02-25T01:38:15.643Z,12.70
2019-02-25T01:39:14.148Z,13.10
2019-02-25T01:40:14.139Z,13.80
2019-02-25T01:41:14.152Z,12.40
2019-02-25T01:42:14.118Z,12.40
2019-02-25T01:43:14.120Z,12.50
2019-02-25T01:44:14.097Z,12.40
2019-02-25T01:45:14.081Z,12.00
2019-02-25T01:46:14.078Z,12.80
2019-02-25T01:47:14.066Z,12.60
2019-02-25T01:48:14.086Z,12.50
2019-02-25T01:49:14.049Z,12.90
2019-02-25T01:50:14.041Z,12.60
2019-02-25T01:51:14.024Z,13.10
2019-02-25T01:52:14.012Z,12.70
2019-02-25T01:53:14.004Z,12.50
2019-02-25T01:54:14.015Z,12.40
2019-02-25T01:55:13.976Z,12.60
2019-02-25T01:56:13.979Z,12.30
2019-02-25T01:57:13.957Z,12.70
2019-02-25T01:58:13.954Z,12.50
2019-02-25T01:59:13.942Z,12.20
2019-02-25T02:00:14.079Z,12.80
2019-02-25T02:01:13.920Z,12.90
2019-02-25T02:02:13.911Z,12.50
2019-02-25T02:03:13.892Z,12.60
2019-02-25T02:04:13.927Z,12.50
2019-02-25T02:05:14.197Z,12.60
2019-02-25T02:06:13.879Z,12.80
2019-02-25T02:07:13.857Z,12.40
2019-02-25T02:08:13.848Z,12.30
2019-02-25T02:09:13.834Z,12.30
2019-02-25T02:10:13.844Z,12.50
2019-02-25T02:11:13.820Z,12.10
2019-02-25T02:12:13.810Z,12.70
2019-02-25T02:13:14.549Z,12.10
2019-02-25T02:14:13.777Z,12.50
2019-02-25T02:15:13.794Z,11.80
2019-02-25T02:16:13.757Z,12.10
2019-02-25T02:17:13.747Z,12.00
2019-02-25T02:18:13.740Z,12.70
2019-02-25T02:19:13.771Z,12.40
2019-02-25T02:20:13.733Z,12.00
2019-02-25T02:21:13.713Z,12.20
2019-02-25T02:22:13.697Z,12.60
2019-02-25T02:23:13.684Z,11.80
2019-02-25T02:24:13.678Z,12.10
2019-02-25T02:25:13.697Z,11.90
2019-02-25T02:26:13.663Z,11.90
2019-02-25T02:27:13.681Z,12.10
2019-02-25T02:28:13.629Z,12.20
2019-02-25T02:29:13.642Z,11.80
2019-02-25T02:30:13.638Z,11.60
2019-02-25T02:31:13.609Z,12.00
2019-02-25T02:32:13.615Z,12.00
2019-02-25T02:33:13.585Z,12.10
2019-02-25T02:34:13.568Z,12.10
2019-02-25T02:35:13.581Z,11.80
2019-02-25T02:36:13.548Z,11.90
2019-02-25T02:37:13.569Z,12.30
2019-02-25T02:38:13.534Z,12.10
2019-02-25T02:39:13.531Z,12.00
2019-02-25T02:40:13.503Z,12.40
2019-02-25T02:41:13.532Z,11.50
2019-02-25T02:42:13.491Z,11.40
2019-02-25T02:43:13.486Z,12.30
2019-02-25T02:44:13.471Z,11.60
2019-02-25T02:45:13.464Z,12.60
2019-02-25T02:46:13.442Z,12.60
2019-02-25T02:47:13.454Z,12.50
2019-02-25T02:48:13.421Z,12.10
2019-02-25T02:49:13.428Z,12.40
2019-02-25T02:50:13.411Z,12.20
2019-02-25T02:51:13.418Z,12.60
2019-02-25T02:52:13.390Z,12.20
2019-02-25T02:53:13.390Z,12.50
2019-02-25T02:54:13.362Z,12.10
2019-02-25T02:55:13.359Z,12.70
2019-02-25T02:56:13.375Z,13.20
2019-02-25T02:57:13.339Z,11.30
2019-02-25T02:58:13.325Z,12.70
2019-02-25T02:59:13.307Z,12.10
2019-02-25T03:00:13.301Z,12.30
2019-02-25T03:01:13.311Z,12.50
2019-02-25T03:02:13.284Z,12.30
2019-02-25T03:03:13.278Z,12.50
2019-02-25T03:04:13.264Z,12.10
2019-02-25T03:05:13.251Z,12.00
2019-02-25T03:06:13.264Z,12.20
2019-02-25T03:07:13.220Z,12.60
2019-02-25T03:08:13.212Z,12.10
2019-02-25T03:09:13.203Z,12.30
2019-02-25T03:10:13.247Z,12.70
2019-02-25T03:11:13.190Z,11.80
2019-02-25T03:12:13.239Z,12.70
2019-02-25T03:13:13.166Z,12.30
2019-02-25T03:14:13.160Z,11.60
2019-02-25T03:15:13.158Z,12.40
2019-02-25T03:16:13.150Z,11.60
2019-02-25T03:17:13.151Z,12.00
2019-02-25T03:18:13.117Z,11.60
2019-02-25T03:19:13.097Z,12.40
2019-02-25T03:20:13.135Z,12.70
2019-02-25T03:21:13.078Z,12.20
2019-02-25T03:22:13.102Z,12.20
2019-02-25T03:23:13.092Z,12.10
2019-02-25T03:24:13.057Z,12.10
2019-02-25T03:25:13.045Z,11.90
2019-02-25T03:26:13.027Z,12.00
2019-02-25T03:27:13.016Z,12.20
2019-02-25T03:28:13.031Z,11.70
2019-02-25T03:29:13.034Z,12.20
2019-02-25T03:30:12.995Z,12.40
2019-02-25T03:31:12.976Z,12.50
2019-02-25T03:32:12.980Z,12.30
2019-02-25T03:33:12.953Z,12.10
2019-02-25T03:34:12.951Z,12.10
2019-02-25T03:35:12.955Z,12.20
2019-02-25T03:36:12.931Z,12.00
2019-02-25T03:37:12.915Z,12.20
2019-02-25T03:38:12.901Z,12.30
2019-02-25T03:39:12.924Z,12.30
2019-02-25T03:40:12.883Z,11.60
2019-02-25T03:41:12.875Z,12.60
2019-02-25T03:42:12.884Z,12.10
2019-02-25T03:43:12.871Z,12.30
2019-02-25T03:44:12.845Z,12.30
2019-02-25T03:45:12.850Z,12.10
2019-02-25T03:46:12.823Z,11.80
2019-02-25T03:47:12.815Z,12.00
2019-02-25T03:48:12.808Z,12.00
2019-02-25T03:49:12.793Z,11.90
2019-02-25T03:50:12.806Z,12.20
2019-02-25T03:51:12.763Z,12.40
2019-02-25T03:52:12.755Z,12.50
2019-02-25T03:53:12.748Z,12.20
2019-02-25T03:54:12.755Z,12.20
2019-02-25T03:55:12.756Z,12.20
2019-02-25T03:56:12.744Z,12.20
2019-02-25T03:57:12.738Z,12.10
2019-02-25T03:58:12.693Z,11.50
2019-02-25T03:59:12.684Z,12.10
2019-02-25T04:00:12.694Z,11.60
2019-02-25T04:01:12.694Z,11.30
2019-02-25T04:02:12.653Z,12.10
2019-02-25T04:03:12.639Z,12.10
2019-02-25T04:04:12.629Z,11.70
2019-02-25T04:05:12.629Z,11.90
2019-02-25T04:06:12.639Z,12.30
2019-02-25T04:07:12.614Z,11.10
2019-02-25T04:08:12.608Z,11.90
2019-02-25T04:09:12.585Z,11.80
2019-02-25T04:10:12.571Z,12.10
2019-02-25T04:11:12.578Z,12.00
2019-02-25T04:12:12.545Z,11.90
2019-02-25T04:13:12.543Z,11.80
2019-02-25T04:14:12.565Z,12.20
2019-02-25T04:15:12.522Z,11.50
2019-02-25T04:16:12.505Z,11.90
2019-02-25T04:17:12.497Z,11.70
2019-02-25T04:18:12.491Z,11.30
2019-02-25T04:19:12.482Z,11.80
2019-02-25T04:20:12.496Z,12.20
2019-02-25T04:21:12.460Z,12.10
2019-02-25T04:22:12.445Z,11.70
2019-02-25T04:23:12.438Z,11.70
2019-02-25T04:24:12.422Z,11.80
2019-02-25T04:25:12.421Z,11.90
2019-02-25T04:26:12.426Z,11.70
2019-02-25T04:27:12.419Z,11.70
2019-02-25T04:28:12.388Z,12.00
2019-02-25T04:29:12.394Z,11.80
2019-02-25T04:30:12.360Z,11.70
2019-02-25T04:31:12.353Z,11.70
2019-02-25T04:32:12.363Z,11.40
2019-02-25T04:33:12.337Z,11.90
2019-02-25T04:34:12.327Z,11.50
2019-02-25T04:35:12.316Z,11.90
2019-02-25T04:36:12.300Z,11.20
2019-02-25T04:37:12.305Z,12.10
2019-02-25T04:38:12.282Z,12.50
2019-02-25T04:39:12.279Z,11.50
2019-02-25T04:40:12.268Z,12.30
2019-02-25T04:41:12.256Z,11.80
2019-02-25T04:42:12.260Z,11.80
2019-02-25T04:43:12.228Z,12.00
2019-02-25T04:44:12.216Z,11.70
2019-02-25T04:45:12.206Z,11.10
2019-02-25T04:46:12.200Z,11.10
2019-02-25T04:47:12.214Z,11.00
2019-02-25T04:48:12.199Z,11.70
2019-02-25T04:49:12.182Z,11.10
2019-02-25T04:50:12.193Z,11.30
2019-02-25T04:51:12.189Z,10.80
2019-02-25T04:52:12.180Z,11.30
2019-02-25T04:53:12.163Z,11.40
2019-02-25T04:54:12.107Z,11.20
2019-02-25T04:55:12.112Z,11.30
2019-02-25T04:56:12.088Z,11.30
2019-02-25T04:57:12.097Z,11.50
2019-02-25T04:58:12.090Z,11.40
2019-02-25T04:59:12.074Z,11.40
2019-02-25T05:00:12.061Z,11.50
2019-02-25T05:01:12.050Z,12.50
2019-02-25T05:02:12.066Z,11.50
2019-02-25T05:03:12.018Z,11.30
2019-02-25T05:04:12.019Z,11.70
2019-02-25T05:05:12.008Z,12.00
2019-02-25T05:06:11.992Z,11.60
2019-02-25T05:07:11.978Z,11.50
2019-02-25T05:08:11.994Z,11.10
2019-02-25T05:09:11.957Z,11.40
2019-02-25T05:10:11.957Z,11.20
2019-02-25T05:11:11.950Z,11.50
2019-02-25T05:12:11.935Z,11.50
2019-02-25T05:13:11.974Z,12.00
2019-02-25T05:14:11.903Z,11.50
2019-02-25T05:15:11.892Z,11.20
2019-02-25T05:16:11.885Z,11.70
2019-02-25T05:17:11.890Z,11.30
2019-02-25T05:18:11.866Z,11.70
2019-02-25T05:19:11.911Z,11.40
2019-02-25T05:20:11.861Z,11.40
2019-02-25T05:21:11.833Z,11.40
2019-02-25T05:22:11.847Z,11.70
2019-02-25T05:23:11.848Z,11.70
2019-02-25T05:24:11.807Z,11.90
2019-02-25T05:25:11.815Z,11.10
2019-02-25T05:26:11.782Z,11.30
2019-02-25T05:27:11.771Z,11.50
2019-02-25T05:28:11.766Z,11.70
2019-02-25T05:29:12.402Z,12.00
2019-02-25T05:30:11.776Z,11.30
2019-02-25T05:31:11.736Z,11.60
2019-02-25T05:32:11.723Z,11.30
2019-02-25T05:33:11.715Z,11.30
2019-02-25T05:34:11.708Z,11.70
2019-02-25T05:35:11.710Z,11.60
2019-02-25T05:36:11.758Z,11.80
2019-02-25T05:37:11.687Z,11.50
2019-02-25T05:38:11.659Z,11.50
2019-02-25T05:39:11.656Z,11.90
2019-02-25T05:40:11.638Z,11.30
2019-02-25T05:41:11.622Z,11.30
2019-02-25T05:42:11.984Z,11.30
2019-02-25T05:43:11.610Z,11.70
2019-02-25T05:44:11.609Z,12.30
2019-02-25T05:45:11.602Z,11.80
2019-02-25T05:46:11.593Z,12.10
2019-02-25T05:47:11.586Z,11.50
2019-02-25T05:48:11.549Z,11.30
2019-02-25T05:49:11.538Z,11.40
2019-02-25T05:50:12.454Z,11.50
2019-02-25T05:51:11.572Z,11.70
2019-02-25T05:52:11.523Z,12.00
2019-02-25T05:53:11.499Z,11.10
2019-02-25T05:54:11.494Z,12.00
2019-02-25T05:55:11.482Z,11.60
2019-02-25T05:56:11.473Z,12.10
2019-02-25T05:57:11.499Z,11.10
2019-02-25T05:58:11.451Z,11.60
2019-02-25T05:59:11.464Z,12.40
2019-02-25T06:00:11.439Z,11.80
2019-02-25T06:01:11.958Z,11.80
2019-02-25T06:02:11.410Z,11.90
2019-02-25T06:03:11.439Z,12.10
2019-02-25T06:04:11.394Z,12.00
2019-02-25T06:05:11.381Z,12.00
2019-02-25T06:06:11.370Z,11.80
2019-02-25T06:07:11.363Z,11.50
2019-02-25T06:08:11.368Z,13.10
2019-02-25T06:09:11.339Z,12.30
2019-02-25T06:10:11.382Z,12.20
2019-02-25T06:11:11.309Z,11.80
2019-02-25T06:12:11.301Z,12.20
2019-02-25T06:13:11.323Z,12.80
2019-02-25T06:14:11.302Z,13.40
2019-02-25T06:15:11.314Z,11.80
2019-02-25T06:16:11.274Z,13.00
2019-02-25T06:17:11.262Z,11.50
2019-02-25T06:18:11.237Z,11.90
2019-02-25T06:19:11.230Z,12.00
2019-02-25T06:20:11.219Z,12.20
2019-02-25T06:21:11.227Z,12.00
2019-02-25T06:22:11.202Z,11.90
2019-02-25T06:23:11.203Z,12.20
2019-02-25T06:24:11.175Z,11.80
2019-02-25T06:25:11.182Z,12.20
2019-02-25T06:26:11.191Z,12.20
2019-02-25T06:27:11.160Z,11.60
2019-02-25T06:28:11.141Z,11.80
2019-02-25T06:29:11.961Z,12.10
2019-02-25T06:30:11.116Z,12.00
2019-02-25T06:31:11.139Z,13.10
2019-02-25T06:32:11.092Z,12.30
2019-02-25T06:33:11.086Z,12.30
2019-02-25T06:34:11.080Z,12.40
2019-02-25T06:35:11.109Z,11.60
2019-02-25T06:36:11.059Z,12.10
2019-02-25T06:37:11.081Z,12.20
2019-02-25T06:38:11.038Z,12.00
2019-02-25T06:39:11.022Z,12.30
2019-02-25T06:40:11.023Z,12.40
2019-02-25T06:41:11.010Z,12.20
2019-02-25T06:42:10.991Z,12.40
2019-02-25T06:43:10.996Z,12.40
2019-02-25T06:44:10.999Z,12.70
2019-02-25T06:45:10.975Z,12.30
2019-02-25T06:46:10.957Z,12.00
2019-02-25T06:47:10.947Z,13.00
2019-02-25T06:48:10.951Z,12.40
2019-02-25T06:49:10.928Z,12.60
2019-02-25T06:50:10.928Z,11.80
2019-02-25T06:51:10.899Z,12.20
2019-02-25T06:52:10.887Z,12.20
2019-02-25T06:53:10.901Z,12.20
2019-02-25T06:54:10.872Z,12.10
2019-02-25T06:55:10.863Z,12.60
2019-02-25T06:56:10.873Z,11.90
2019-02-25T06:57:10.837Z,11.60
2019-02-25T06:58:10.830Z,12.20
2019-02-25T06:59:10.827Z,12.60
2019-02-25T07:00:10.810Z,12.10
2019-02-25T07:01:10.805Z,11.80
2019-02-25T07:02:10.806Z,12.20
2019-02-25T07:03:10.768Z,12.90
2019-02-25T07:04:10.784Z,12.60
2019-02-25T07:05:10.751Z,12.70
2019-02-25T07:06:10.748Z,12.90
2019-02-25T07:07:10.756Z,13.00
2019-02-25T07:08:10.731Z,13.00
2019-02-25T07:09:10.738Z,12.70
2019-02-25T07:10:10.763Z,12.80
2019-02-25T07:11:10.690Z,12.60
2019-02-25T07:12:10.707Z,12.90
2019-02-25T07:13:10.668Z,12.70
2019-02-25T07:14:10.656Z,12.70
2019-02-25T07:15:10.640Z,13.50
2019-02-25T07:16:10.665Z,12.90
2019-02-25T07:17:10.618Z,13.20
2019-02-25T07:18:10.651Z,12.50
2019-02-25T07:19:10.606Z,12.80
2019-02-25T07:20:10.606Z,13.00
2019-02-25T07:21:10.583Z,13.10
2019-02-25T07:22:10.570Z,13.00
2019-02-25T07:23:10.559Z,13.10
2019-02-25T07:24:10.599Z,13.10
2019-02-25T07:25:10.534Z,13.00
2019-02-25T07:26:10.541Z,13.50
2019-02-25T07:27:10.521Z,13.10
2019-02-25T07:28:10.518Z,13.40
2019-02-25T07:29:10.493Z,13.40
2019-02-25T07:30:10.512Z,13.90
2019-02-25T07:31:10.476Z,13.70
2019-02-25T07:32:10.472Z,13.90
2019-02-25T07:33:10.454Z,13.90
2019-02-25T07:34:10.485Z,14.80
2019-02-25T07:35:10.428Z,14.20
2019-02-25T07:36:10.423Z,14.20
2019-02-25T07:37:10.415Z,13.30
2019-02-25T07:38:10.409Z,13.40
2019-02-25T07:39:10.433Z,13.70
2019-02-25T07:40:10.399Z,13.80
2019-02-25T07:41:10.374Z,13.80
2019-02-25T07:42:10.360Z,14.40
2019-02-25T07:43:10.343Z,13.70
2019-02-25T07:44:10.339Z,14.50
2019-02-25T07:45:10.384Z,14.00
2019-02-25T07:46:10.311Z,13.90
2019-02-25T07:47:10.304Z,14.20
2019-02-25T07:48:10.287Z,14.30
2019-02-25T07:49:10.278Z,14.80
2019-02-25T07:50:10.327Z,14.20
2019-02-25T07:51:10.277Z,14.20
2019-02-25T07:52:10.257Z,13.90
2019-02-25T07:53:10.244Z,13.90
2019-02-25T07:54:10.226Z,14.30
2019-02-25T07:55:10.242Z,14.20
2019-02-25T07:56:10.205Z,14.10
2019-02-25T07:57:10.202Z,13.50
2019-02-25T07:58:10.190Z,14.10
2019-02-25T07:59:10.176Z,13.90
2019-02-25T08:00:10.165Z,14.00
2019-02-25T08:01:10.169Z,14.10
2019-02-25T08:02:10.149Z,15.00
2019-02-25T08:03:10.134Z,13.80
2019-02-25T08:04:10.133Z,14.30
2019-02-25T08:05:10.111Z,13.90
2019-02-25T08:06:11.964Z,14.10
2019-02-25T08:07:10.099Z,14.10
2019-02-25T08:08:10.072Z,14.30
2019-02-25T08:09:10.062Z,13.90
2019-02-25T08:10:10.070Z,14.40
2019-02-25T08:11:10.080Z,14.80
2019-02-25T08:12:10.050Z,14.90
2019-02-25T08:13:10.043Z,14.50
2019-02-25T08:14:10.011Z,14.10
2019-02-25T08:15:10.003Z,14.80
2019-02-25T08:16:10.014Z,14.20
2019-02-25T08:17:10.008Z,14.80
2019-02-25T08:18:09.978Z,14.80
2019-02-25T08:19:09.960Z,14.70
2019-02-25T08:20:09.992Z,14.90
2019-02-25T08:21:09.955Z,14.50
2019-02-25T08:22:09.930Z,14.50
2019-02-25T08:23:09.952Z,15.10
2019-02-25T08:24:09.920Z,14.50
2019-02-25T08:25:09.922Z,14.70
2019-02-25T08:26:09.905Z,15.50
2019-02-25T08:27:09.872Z,15.00
2019-02-25T08:28:09.881Z,15.40
2019-02-25T08:29:09.856Z,14.90
2019-02-25T08:30:09.853Z,15.40
2019-02-25T08:31:09.830Z,15.20
2019-02-25T08:32:09.814Z,15.30
2019-02-25T08:33:09.799Z,14.90
2019-02-25T08:34:18.106Z,15.90
2019-02-25T08:35:10.789Z,15.20
2019-02-25T08:36:09.777Z,15.50
2019-02-25T08:37:09.771Z,15.70
2019-02-25T08:38:09.773Z,15.80
2019-02-25T08:39:09.752Z,15.50
2019-02-25T08:40:11.609Z,15.60
2019-02-25T08:41:09.731Z,15.80
2019-02-25T08:42:09.713Z,15.20
2019-02-25T08:43:09.716Z,15.70
2019-02-25T08:44:09.698Z,15.80
2019-02-25T08:45:09.677Z,16.00
2019-02-25T08:46:09.668Z,15.40
2019-02-25T08:47:09.669Z,15.80
2019-02-25T08:48:09.680Z,16.40
2019-02-25T08:49:09.697Z,16.30
2019-02-25T08:50:09.625Z,16.50
2019-02-25T08:51:09.623Z,15.80
2019-02-25T08:52:09.609Z,16.60
2019-02-25T08:53:09.587Z,15.80
2019-02-25T08:54:09.582Z,16.70
2019-02-25T08:55:09.591Z,16.00
2019-02-25T08:56:09.563Z,15.90
2019-02-25T08:57:09.548Z,16.50
2019-02-25T08:58:09.552Z,16.00
2019-02-25T08:59:09.555Z,15.70
2019-02-25T09:00:09.536Z,16.10
2019-02-25T09:01:09.501Z,16.20
2019-02-25T09:02:09.504Z,16.20
2019-02-25T09:03:09.486Z,16.60
2019-02-25T09:04:09.475Z,16.70
2019-02-25T09:05:09.485Z,16.00
2019-02-25T09:06:09.532Z,16.70
2019-02-25T09:07:09.476Z,16.50
2019-02-25T09:08:09.443Z,16.10
2019-02-25T09:09:09.425Z,16.00
2019-02-25T09:10:09.442Z,16.20
2019-02-25T09:11:14.069Z,16.80
2019-02-25T09:12:10.379Z,16.60
2019-02-25T09:13:09.381Z,16.80
2019-02-25T09:14:09.370Z,16.40
2019-02-25T09:15:09.417Z,17.20
2019-02-25T09:16:09.367Z,17.60
2019-02-25T09:17:09.338Z,17.00
2019-02-25T09:18:09.327Z,17.30
2019-02-25T09:19:09.306Z,17.30
2019-02-25T09:20:09.312Z,17.60
2019-02-25T09:21:09.337Z,16.80
2019-02-25T09:22:09.275Z,17.20
2019-02-25T09:23:09.263Z,17.40
2019-02-25T09:24:09.267Z,17.70
2019-02-25T09:25:09.257Z,17.30
2019-02-25T09:26:09.239Z,17.50
2019-02-25T09:27:09.269Z,17.60
2019-02-25T09:28:09.232Z,17.90
2019-02-25T09:29:09.207Z,17.30
2019-02-25T09:30:09.218Z,17.70
2019-02-25T09:31:09.213Z,18.10
2019-02-25T09:32:09.169Z,18.50
2019-02-25T09:33:09.177Z,18.40
2019-02-25T09:34:09.174Z,17.70
2019-02-25T09:35:09.156Z,18.30
2019-02-25T09:36:09.158Z,18.30
2019-02-25T09:37:10.013Z,18.70
2019-02-25T09:38:09.149Z,18.50
2019-02-25T09:39:09.119Z,18.40
2019-02-25T09:40:09.126Z,19.40
2019-02-25T09:41:09.085Z,19.30
2019-02-25T09:42:09.074Z,19.20
2019-02-25T09:43:09.075Z,19.10
2019-02-25T09:44:09.048Z,19.20
2019-02-25T09:45:09.042Z,19.10
2019-02-25T09:46:09.035Z,19.60
2019-02-25T09:47:09.021Z,19.60
2019-02-25T09:48:09.076Z,18.80
2019-02-25T09:49:09.000Z,19.40
2019-02-25T09:50:08.982Z,20.20
2019-02-25T09:51:09.010Z,19.60
2019-02-25T09:52:08.989Z,19.60
2019-02-25T09:53:08.956Z,19.30
2019-02-25T09:54:08.959Z,19.70
2019-02-25T09:55:08.932Z,19.30
2019-02-25T09:56:08.924Z,19.70
2019-02-25T09:57:08.950Z,19.70
2019-02-25T09:58:08.954Z,19.30
2019-02-25T09:59:08.917Z,19.30
2019-02-25T10:00:08.879Z,19.60
2019-02-25T10:01:08.869Z,19.10
2019-02-25T10:02:08.869Z,19.90
2019-02-25T10:03:08.840Z,19.40
2019-02-25T10:04:08.926Z,19.80
2019-02-25T10:05:08.824Z,19.70
2019-02-25T10:06:08.829Z,20.00
2019-02-25T10:07:08.811Z,19.20
2019-02-25T10:08:08.797Z,19.30
2019-02-25T10:09:08.807Z,19.60
2019-02-25T10:10:08.827Z,19.40
2019-02-25T10:11:08.768Z,19.10
2019-02-25T10:12:08.757Z,19.00
2019-02-25T10:13:08.751Z,19.00
2019-02-25T10:14:08.732Z,18.40
2019-02-25T10:15:08.756Z,18.80
2019-02-25T10:16:08.707Z,18.70
2019-02-25T10:17:08.700Z,18.80
2019-02-25T10:18:08.708Z,18.70
2019-02-25T10:19:08.691Z,18.60
2019-02-25T10:20:08.681Z,19.10
2019-02-25T10:21:08.691Z,18.70
2019-02-25T10:22:08.688Z,19.00
2019-02-25T10:23:08.641Z,19.10
2019-02-25T10:24:08.636Z,18.80
2019-02-25T10:25:08.635Z,19.40
2019-02-25T10:26:08.646Z,18.50
2019-02-25T10:27:08.593Z,18.80
2019-02-25T10:28:08.588Z,18.70
2019-02-25T10:29:08.592Z,18.60
2019-02-25T10:30:08.565Z,19.00
2019-02-25T10:31:08.561Z,19.60
2019-02-25T10:32:08.572Z,19.60
2019-02-25T10:33:08.531Z,19.40
2019-02-25T10:34:08.519Z,19.70
2019-02-25T10:35:09.379Z,19.10
2019-02-25T10:36:08.950Z,19.30
2019-02-25T10:37:09.046Z,19.90
2019-02-25T10:38:08.503Z,19.60
2019-02-25T10:39:10.480Z,19.80
2019-02-25T10:40:08.468Z,19.60
2019-02-25T10:41:08.442Z,19.90
2019-02-25T10:42:08.446Z,19.20
2019-02-25T10:43:08.448Z,20.20
2019-02-25T10:44:08.552Z,19.90
2019-02-25T10:45:08.998Z,19.30
2019-02-25T10:46:09.531Z,19.10
2019-02-25T10:47:08.416Z,19.20
2019-02-25T10:48:08.415Z,18.90
2019-02-25T10:49:11.546Z,19.50
2019-02-25T10:50:08.373Z,18.90
2019-02-25T10:51:09.289Z,18.80
2019-02-25T10:52:09.215Z,19.30
2019-02-25T10:53:08.333Z,19.00
2019-02-25T10:54:11.058Z,18.80
2019-02-25T10:55:08.310Z,18.80
2019-02-25T10:56:08.310Z,19.30
2019-02-25T10:57:08.297Z,19.10
2019-02-25T10:58:08.283Z,18.60
2019-02-25T10:59:08.348Z,19.50
2019-02-25T11:00:09.606Z,19.30
2019-02-25T11:01:13.383Z,19.20
2019-02-25T11:02:11.040Z,18.90
2019-02-25T11:03:08.233Z,18.90
2019-02-25T11:04:08.256Z,20.00
2019-02-25T11:05:08.204Z,18.60
2019-02-25T11:06:08.203Z,19.30
2019-02-25T11:07:09.657Z,18.50
2019-02-25T11:08:09.527Z,18.10
2019-02-25T11:09:09.031Z,18.40
2019-02-25T11:10:08.151Z,18.20
2019-02-25T11:11:08.165Z,17.50
2019-02-25T11:12:08.136Z,17.30
2019-02-25T11:13:08.132Z,17.60
2019-02-25T11:14:09.216Z,17.90
2019-02-25T11:15:09.509Z,17.90
2019-02-25T11:16:09.728Z,17.60
2019-02-25T11:17:08.082Z,18.10
2019-02-25T11:18:08.078Z,17.90
2019-02-25T11:19:08.071Z,17.30
2019-02-25T11:20:08.283Z,17.70
2019-02-25T11:21:08.862Z,16.80
2019-02-25T11:22:09.948Z,17.00
2019-02-25T11:23:09.967Z,16.50
2019-02-25T11:24:08.006Z,16.00
2019-02-25T11:25:08.007Z,16.40
2019-02-25T11:26:09.329Z,16.80
2019-02-25T11:27:07.975Z,17.00
2019-02-25T11:28:11.250Z,16.80
2019-02-25T11:29:10.147Z,16.60
2019-02-25T11:30:09.412Z,17.20
2019-02-25T11:31:07.952Z,17.00
2019-02-25T11:32:07.953Z,16.10
2019-02-25T11:33:07.919Z,16.70
2019-02-25T11:34:08.128Z,16.50
2019-02-25T11:35:08.666Z,16.60
2019-02-25T11:36:07.878Z,17.00
2019-02-25T11:37:07.881Z,17.30
2019-02-25T11:38:07.867Z,17.10
2019-02-25T11:39:09.459Z,16.80
2019-02-25T11:40:07.839Z,16.40
2019-02-25T11:41:09.499Z,17.30
2019-02-25T11:42:10.071Z,17.00
2019-02-25T11:43:08.384Z,17.20
2019-02-25T11:44:07.823Z,17.30
2019-02-25T11:45:07.802Z,17.70
2019-02-25T11:46:07.791Z,17.10
2019-02-25T11:47:07.789Z,18.30
2019-02-25T11:48:07.775Z,16.90
2019-02-25T11:49:07.750Z,18.00
2019-02-25T11:50:07.740Z,17.20
2019-02-25T11:51:07.729Z,17.00
2019-02-25T11:52:07.714Z,17.40
2019-02-25T11:53:07.727Z,17.50
2019-02-25T11:54:07.693Z,17.40
2019-02-25T11:55:07.740Z,17.50
2019-02-25T11:56:07.675Z,16.60
2019-02-25T11:57:07.662Z,16.60
2019-02-25T11:58:07.687Z,16.90
2019-02-25T11:59:07.654Z,17.10
2019-02-25T12:00:07.633Z,17.40
2019-02-25T12:01:07.622Z,17.30
2019-02-25T12:02:08.536Z,17.80
2019-02-25T12:03:07.619Z,17.20
2019-02-25T12:04:07.626Z,17.50
2019-02-25T12:05:07.583Z,18.40
2019-02-25T12:06:07.576Z,17.70
2019-02-25T12:07:07.573Z,17.70
2019-02-25T12:08:07.575Z,17.80
2019-02-25T12:09:07.540Z,17.60
2019-02-25T12:10:07.531Z,17.10
2019-02-25T12:11:08.712Z,17.60
2019-02-25T12:12:07.520Z,17.30
2019-02-25T12:13:07.535Z,17.80
2019-02-25T12:14:07.499Z,17.90
2019-02-25T12:15:07.476Z,18.00
2019-02-25T12:16:07.516Z,17.80
2019-02-25T12:17:07.467Z,17.60
2019-02-25T12:18:07.467Z,16.90
2019-02-25T12:19:07.445Z,17.30
2019-02-25T12:20:07.495Z,18.10
2019-02-25T12:21:07.415Z,17.00
2019-02-25T12:22:07.412Z,17.30
2019-02-25T12:23:07.422Z,16.70
2019-02-25T12:24:07.394Z,16.60
2019-02-25T12:25:07.397Z,17.20
2019-02-25T12:26:07.403Z,17.20
2019-02-25T12:27:07.368Z,16.80
2019-02-25T12:28:07.347Z,17.20
2019-02-25T12:29:10.783Z,16.60
2019-02-25T12:30:07.335Z,17.60
2019-02-25T12:31:07.330Z,17.30
2019-02-25T12:32:07.329Z,17.40
2019-02-25T12:33:07.311Z,17.00
2019-02-25T12:34:07.292Z,16.90
2019-02-25T12:35:07.295Z,16.60
2019-02-25T12:36:07.275Z,16.70
2019-02-25T12:37:07.295Z,16.80
2019-02-25T12:38:07.276Z,16.50
2019-02-25T12:39:07.258Z,16.70
2019-02-25T12:40:07.225Z,16.50
2019-02-25T12:41:07.214Z,17.00
2019-02-25T12:42:07.225Z,16.60
2019-02-25T12:43:07.237Z,16.70
2019-02-25T12:44:07.212Z,17.20
2019-02-25T12:45:07.220Z,16.70
2019-02-25T12:46:07.164Z,16.60
2019-02-25T12:47:07.152Z,16.80
2019-02-25T12:48:07.150Z,16.30
2019-02-25T12:49:07.156Z,16.30
2019-02-25T12:50:07.147Z,16.30
2019-02-25T12:51:07.119Z,16.90
2019-02-25T12:52:07.112Z,16.80